sensor_id;sensor_type;location;lat;lon;timestamp;pressure;altitude;pressure_sealevel;temperature;humidity
6423;BME280;3244;42.708;23.288;2023-02-16T00:01:18;96313.13;;;0.97;79.14
6423;BME280;3244;42.708;23.288;2023-02-16T00:03:45;96315.34;;;0.86;79.43
6423;BME280;3244;42.708;23.288;2023-02-16T00:06:12;96323.06;;;0.94;80.11
6423;BME280;3244;42.708;23.288;2023-02-16T00:08:42;96321.34;;;0.93;80.03
6423;BME280;3244;42.708;23.288;2023-02-16T00:11:20;96317.97;;;0.91;79.23
6423;BME280;3244;42.708;23.288;2023-02-16T00:14:08;96314.50;;;0.86;79.27
6423;BME280;3244;42.708;23.288;2023-02-16T00:16:37;96310.38;;;0.88;80.22
6423;BME280;3244;42.708;23.288;2023-02-16T00:19:20;96314.44;;;0.83;79.63
6423;BME280;3244;42.708;23.288;2023-02-16T00:21:48;96314.50;;;0.86;80.44
6423;BME280;3244;42.708;23.288;2023-02-16T00:24:16;96315.97;;;0.78;79.75
6423;BME280;3244;42.708;23.288;2023-02-16T00:26:43;96312.66;;;0.79;80.11
6423;BME280;3244;42.708;23.288;2023-02-16T00:29:16;96315.47;;;0.91;80.77
6423;BME280;3244;42.708;23.288;2023-02-16T00:31:45;96317.97;;;0.91;80.13
6423;BME280;3244;42.708;23.288;2023-02-16T00:34:31;96314.50;;;0.86;80.77
6423;BME280;3244;42.708;23.288;2023-02-16T00:37:00;96308.63;;;0.84;80.66
6423;BME280;3244;42.708;23.288;2023-02-16T00:39:27;96312.69;;;0.80;80.52
6423;BME280;3244;42.708;23.288;2023-02-16T00:41:56;96308.41;;;0.76;79.98
6423;BME280;3244;42.708;23.288;2023-02-16T00:44:30;96311.63;;;0.69;80.10
6423;BME280;3244;42.708;23.288;2023-02-16T00:47:00;96317.38;;;0.66;80.38
6423;BME280;3244;42.708;23.288;2023-02-16T00:49:27;96309.88;;;0.66;80.42
6423;BME280;3244;42.708;23.288;2023-02-16T00:51:54;96317.38;;;0.66;80.79
6423;BME280;3244;42.708;23.288;2023-02-16T00:54:21;96303.84;;;0.58;80.84
6423;BME280;3244;42.708;23.288;2023-02-16T00:56:48;96311.38;;;0.60;80.17
6423;BME280;3244;42.708;23.288;2023-02-16T00:59:17;96293.63;;;0.49;80.30
6423;BME280;3244;42.708;23.288;2023-02-16T01:01:45;96306.25;;;0.55;80.55
6423;BME280;3244;42.708;23.288;2023-02-16T01:04:19;96312.06;;;0.54;80.87
6423;BME280;3244;42.708;23.288;2023-02-16T01:06:46;96296.13;;;0.51;80.34
6423;BME280;3244;42.708;23.288;2023-02-16T01:09:31;96306.97;;;0.51;80.30
6423;BME280;3244;42.708;23.288;2023-02-16T01:12:17;96301.94;;;0.48;80.82
6423;BME280;3244;42.708;23.288;2023-02-16T01:14:46;96300.94;;;0.42;80.90
6423;BME280;3244;42.708;23.288;2023-02-16T01:17:16;96298.31;;;0.37;80.79
6423;BME280;3244;42.708;23.288;2023-02-16T01:19:44;96297.38;;;0.33;80.83
6423;BME280;3244;42.708;23.288;2023-02-16T01:22:11;96299.91;;;0.35;80.84
6423;BME280;3244;42.708;23.288;2023-02-16T01:24:38;96286.31;;;0.58;80.13
6423;BME280;3244;42.708;23.288;2023-02-16T01:27:04;96287.28;;;0.63;79.84
6423;BME280;3244;42.708;23.288;2023-02-16T01:29:31;96289.44;;;0.50;80.12
6423;BME280;3244;42.708;23.288;2023-02-16T01:31:58;96264.97;;;0.38;80.10
6423;BME280;3244;42.708;23.288;2023-02-16T01:34:25;96287.63;;;0.43;79.89
6423;BME280;3244;42.708;23.288;2023-02-16T01:36:53;96276.69;;;0.39;80.03
6423;BME280;3244;42.708;23.288;2023-02-16T01:39:19;96278.13;;;0.31;80.25
6423;BME280;3244;42.708;23.288;2023-02-16T01:42:05;96277.38;;;0.33;80.47
6423;BME280;3244;42.708;23.288;2023-02-16T01:44:38;96281.34;;;0.27;80.51
6423;BME280;3244;42.708;23.288;2023-02-16T01:47:15;96267.16;;;0.24;80.88
6423;BME280;3244;42.708;23.288;2023-02-16T01:49:45;96266.16;;;0.18;80.48
6423;BME280;3244;42.708;23.288;2023-02-16T01:52:21;96264.44;;;0.17;80.61
6423;BME280;3244;42.708;23.288;2023-02-16T01:54:53;96264.41;;;0.15;80.25
6423;BME280;3244;42.708;23.288;2023-02-16T01:57:29;96266.81;;;0.12;80.72
6423;BME280;3244;42.708;23.288;2023-02-16T02:00:10;96255.97;;;0.12;80.54
6423;BME280;3244;42.708;23.288;2023-02-16T02:02:40;96260.91;;;0.09;80.92
6423;BME280;3244;42.708;23.288;2023-02-16T02:05:19;96265.84;;;0.07;80.21
6423;BME280;3244;42.708;23.288;2023-02-16T02:08:09;96264.94;;;0.04;80.88
6423;BME280;3244;42.708;23.288;2023-02-16T02:10:45;96269.88;;;0.02;80.89
6423;BME280;3244;42.708;23.288;2023-02-16T02:13:19;96259.84;;;0.00;80.90
6423;BME280;3244;42.708;23.288;2023-02-16T02:15:47;96273.06;;;-0.05;81.02
6423;BME280;3244;42.708;23.288;2023-02-16T02:18:14;96269.78;;;-0.03;80.95
6423;BME280;3244;42.708;23.288;2023-02-16T02:20:51;96269.84;;;-0.01;80.37
6423;BME280;3244;42.708;23.288;2023-02-16T02:24:07;96258.09;;;-0.04;80.61
6423;BME280;3244;42.708;23.288;2023-02-16T02:26:58;96254.78;;;-0.03;80.29
6423;BME280;3244;42.708;23.288;2023-02-16T02:29:42;96251.28;;;-0.09;80.63
6423;BME280;3244;42.708;23.288;2023-02-16T02:32:20;96252.88;;;-0.11;80.62
6423;BME280;3244;42.708;23.288;2023-02-16T02:34:59;96259.66;;;-0.07;80.61
6423;BME280;3244;42.708;23.288;2023-02-16T02:37:36;96259.66;;;-0.07;80.20
6423;BME280;3244;42.708;23.288;2023-02-16T02:40:09;96260.44;;;-0.10;80.14
6423;BME280;3244;42.708;23.288;2023-02-16T02:42:43;96258.69;;;-0.12;80.34
6423;BME280;3244;42.708;23.288;2023-02-16T02:45:16;96263.72;;;-0.11;80.77
6423;BME280;3244;42.708;23.288;2023-02-16T02:47:45;96257.69;;;-0.19;80.67
6423;BME280;3244;42.708;23.288;2023-02-16T02:50:41;96262.53;;;-0.25;80.13
6423;BME280;3244;42.708;23.288;2023-02-16T02:53:31;96264.28;;;-0.21;80.83
6423;BME280;3244;42.708;23.288;2023-02-16T02:56:00;96260.09;;;-0.22;80.42
6423;BME280;3244;42.708;23.288;2023-02-16T02:58:49;96266.78;;;-0.21;80.55
6423;BME280;3244;42.708;23.288;2023-02-16T03:01:37;96273.47;;;-0.20;80.62
6423;BME280;3244;42.708;23.288;2023-02-16T03:04:06;96271.63;;;-0.27;80.78
6423;BME280;3244;42.708;23.288;2023-02-16T03:06:37;96270.84;;;-0.26;80.76
6423;BME280;3244;42.708;23.288;2023-02-16T03:09:10;96268.25;;;-0.29;81.63
6423;BME280;3244;42.708;23.288;2023-02-16T03:11:38;96277.47;;;-0.26;81.75
6423;BME280;3244;42.708;23.288;2023-02-16T03:14:27;96272.56;;;-0.22;81.36
6423;BME280;3244;42.708;23.288;2023-02-16T03:16:58;96271.78;;;-0.21;81.05
6423;BME280;3244;42.708;23.288;2023-02-16T03:19:43;96273.38;;;-0.23;80.95
6423;BME280;3244;42.708;23.288;2023-02-16T03:22:30;96274.03;;;-0.30;81.17
6423;BME280;3244;42.708;23.288;2023-02-16T03:25:15;96274.72;;;-0.36;81.17
6423;BME280;3244;42.708;23.288;2023-02-16T03:28:03;96268.78;;;-0.39;80.70
6423;BME280;3244;42.708;23.288;2023-02-16T03:30:50;96269.69;;;-0.37;81.00
6423;BME280;3244;42.708;23.288;2023-02-16T03:33:18;96260.50;;;-0.38;80.94
6423;BME280;3244;42.708;23.288;2023-02-16T03:35:46;96256.91;;;-0.46;81.10
6423;BME280;3244;42.708;23.288;2023-02-16T03:38:13;96259.47;;;-0.45;80.86
6423;BME280;3244;42.708;23.288;2023-02-16T03:40:41;96251.13;;;-0.45;81.57
6423;BME280;3244;42.708;23.288;2023-02-16T03:43:09;96255.31;;;-0.44;81.50
6423;BME280;3244;42.708;23.288;2023-02-16T03:45:38;96258.63;;;-0.45;81.08
6423;BME280;3244;42.708;23.288;2023-02-16T03:48:08;96260.97;;;-0.51;81.30
6423;BME280;3244;42.708;23.288;2023-02-16T03:50:35;96264.19;;;-0.55;81.41
6423;BME280;3244;42.708;23.288;2023-02-16T03:53:02;96261.72;;;-0.54;81.92
6423;BME280;3244;42.708;23.288;2023-02-16T03:55:33;96269.09;;;-0.58;81.92
6423;BME280;3244;42.708;23.288;2023-02-16T03:58:00;96259.31;;;-0.51;81.45
6423;BME280;3244;42.708;23.288;2023-02-16T04:00:27;96259.19;;;-0.55;81.66
6423;BME280;3244;42.708;23.288;2023-02-16T04:02:54;96263.09;;;-0.63;81.60
6423;BME280;3244;42.708;23.288;2023-02-16T04:05:22;96258.81;;;-0.68;82.18
6423;BME280;3244;42.708;23.288;2023-02-16T04:07:49;96254.63;;;-0.69;82.19
6423;BME280;3244;42.708;23.288;2023-02-16T04:10:16;96257.72;;;-0.77;82.83
6423;BME280;3244;42.708;23.288;2023-02-16T04:12:42;96251.16;;;-0.74;82.71
6423;BME280;3244;42.708;23.288;2023-02-16T04:15:10;96245.13;;;-0.82;82.78
6423;BME280;3244;42.708;23.288;2023-02-16T04:17:37;96245.97;;;-0.81;82.94
6423;BME280;3244;42.708;23.288;2023-02-16T04:20:05;96239.94;;;-0.88;83.02
6423;BME280;3244;42.708;23.288;2023-02-16T04:22:34;96247.59;;;-0.82;82.91
6423;BME280;3244;42.708;23.288;2023-02-16T04:25:01;96244.34;;;-0.79;82.23
6423;BME280;3244;42.708;23.288;2023-02-16T04:27:27;96247.56;;;-0.83;82.12
6423;BME280;3244;42.708;23.288;2023-02-16T04:29:54;96248.63;;;-0.75;81.90
6423;BME280;3244;42.708;23.288;2023-02-16T04:32:21;96251.25;;;-0.71;81.27
6423;BME280;3244;42.708;23.288;2023-02-16T04:34:48;96237.91;;;-0.71;81.25
6423;BME280;3244;42.708;23.288;2023-02-16T04:37:15;96244.50;;;-0.73;80.95
6423;BME280;3244;42.708;23.288;2023-02-16T04:39:43;96251.34;;;-0.68;80.15
6423;BME280;3244;42.708;23.288;2023-02-16T04:42:10;96251.03;;;-0.78;80.30
6423;BME280;3244;42.708;23.288;2023-02-16T04:44:37;96250.16;;;-0.80;80.29
6423;BME280;3244;42.708;23.288;2023-02-16T04:47:04;96256.00;;;-0.80;80.34
6423;BME280;3244;42.708;23.288;2023-02-16T04:49:31;96258.22;;;-0.89;80.46
6423;BME280;3244;42.708;23.288;2023-02-16T04:51:58;96250.63;;;-0.92;80.68
6423;BME280;3244;42.708;23.288;2023-02-16T04:54:25;96268.19;;;-0.89;80.77
6423;BME280;3244;42.708;23.288;2023-02-16T04:56:53;96273.19;;;-0.89;80.31
6423;BME280;3244;42.708;23.288;2023-02-16T04:59:20;96265.75;;;-0.87;80.35
6423;BME280;3244;42.708;23.288;2023-02-16T05:01:47;96266.69;;;-0.84;80.70
6423;BME280;3244;42.708;23.288;2023-02-16T05:04:14;96262.50;;;-0.85;80.74
6423;BME280;3244;42.708;23.288;2023-02-16T05:06:41;96268.28;;;-0.86;80.60
6423;BME280;3244;42.708;23.288;2023-02-16T05:09:08;96268.22;;;-0.87;80.36
6423;BME280;3244;42.708;23.288;2023-02-16T05:11:35;96274.13;;;-0.85;80.54
6423;BME280;3244;42.708;23.288;2023-02-16T05:14:27;96278.41;;;-0.81;80.51
6423;BME280;3244;42.708;23.288;2023-02-16T05:17:07;96266.59;;;-0.87;80.68
6423;BME280;3244;42.708;23.288;2023-02-16T05:19:34;96275.06;;;-0.82;80.27
6423;BME280;3244;42.708;23.288;2023-02-16T05:22:01;96273.47;;;-0.80;80.76
6423;BME280;3244;42.708;23.288;2023-02-16T05:24:28;96283.44;;;-0.80;80.14
6423;BME280;3244;42.708;23.288;2023-02-16T05:26:54;96285.03;;;-0.82;80.42
6423;BME280;3244;42.708;23.288;2023-02-16T05:29:21;96279.25;;;-0.81;80.04
6423;BME280;3244;42.708;23.288;2023-02-16T05:31:50;96285.13;;;-0.79;80.48
6423;BME280;3244;42.708;23.288;2023-02-16T05:34:17;96289.38;;;-0.76;80.23
6423;BME280;3244;42.708;23.288;2023-02-16T05:36:44;96285.28;;;-0.73;80.20
6423;BME280;3244;42.708;23.288;2023-02-16T05:39:10;96286.38;;;-0.64;79.85
6423;BME280;3244;42.708;23.288;2023-02-16T05:41:37;96288.97;;;-0.61;79.99
6423;BME280;3244;42.708;23.288;2023-02-16T05:44:05;96282.53;;;-0.53;79.88
6423;BME280;3244;42.708;23.288;2023-02-16T05:46:34;96281.09;;;-0.45;79.44
6423;BME280;3244;42.708;23.288;2023-02-16T05:49:03;96289.06;;;-0.28;79.38
6423;BME280;3244;42.708;23.288;2023-02-16T05:51:31;96293.53;;;-0.17;79.35
6423;BME280;3244;42.708;23.288;2023-02-16T05:53:57;96285.41;;;-0.10;79.42
6423;BME280;3244;42.708;23.288;2023-02-16T05:56:25;96289.53;;;0.20;79.34
6423;BME280;3244;42.708;23.288;2023-02-16T05:58:52;96291.41;;;0.96;78.35
6423;BME280;3244;42.708;23.288;2023-02-16T06:01:19;96298.94;;;2.18;74.39
6423;BME280;3244;42.708;23.288;2023-02-16T06:03:46;96295.19;;;3.51;69.61
6423;BME280;3244;42.708;23.288;2023-02-16T06:06:14;96279.66;;;4.60;63.87
6423;BME280;3244;42.708;23.288;2023-02-16T06:08:41;96287.75;;;5.31;61.20
6423;BME280;3244;42.708;23.288;2023-02-16T06:11:08;96296.66;;;6.34;59.14
6423;BME280;3244;42.708;23.288;2023-02-16T06:13:56;96294.16;;;7.49;55.92
6423;BME280;3244;42.708;23.288;2023-02-16T06:16:24;96271.28;;;7.81;54.14
6423;BME280;3244;42.708;23.288;2023-02-16T06:18:51;96293.28;;;7.63;53.39
6423;BME280;3244;42.708;23.288;2023-02-16T06:21:20;96301.78;;;7.10;55.29
6423;BME280;3244;42.708;23.288;2023-02-16T06:23:47;96300.88;;;7.46;54.35
6423;BME280;3244;42.708;23.288;2023-02-16T06:26:14;96298.94;;;8.27;52.69
6423;BME280;3244;42.708;23.288;2023-02-16T06:28:41;96298.47;;;9.06;50.71
6423;BME280;3244;42.708;23.288;2023-02-16T06:31:08;96300.31;;;9.81;48.72
6423;BME280;3244;42.708;23.288;2023-02-16T06:33:35;96299.09;;;10.78;46.16
6423;BME280;3244;42.708;23.288;2023-02-16T06:36:02;96292.06;;;11.45;43.67
6423;BME280;3244;42.708;23.288;2023-02-16T06:38:31;96291.59;;;12.15;43.13
6423;BME280;3244;42.708;23.288;2023-02-16T06:40:58;96286.81;;;12.42;40.90
6423;BME280;3244;42.708;23.288;2023-02-16T06:43:24;96291.06;;;12.81;41.96
6423;BME280;3244;42.708;23.288;2023-02-16T06:45:51;96293.28;;;13.65;39.39
6423;BME280;3244;42.708;23.288;2023-02-16T06:48:18;96292.47;;;14.57;38.04
6423;BME280;3244;42.708;23.288;2023-02-16T06:50:45;96295.94;;;15.37;35.69
6423;BME280;3244;42.708;23.288;2023-02-16T06:53:11;96296.63;;;16.16;34.02
6423;BME280;3244;42.708;23.288;2023-02-16T06:55:40;96287.31;;;16.14;33.28
6423;BME280;3244;42.708;23.288;2023-02-16T06:58:07;96292.47;;;15.89;33.34
6423;BME280;3244;42.708;23.288;2023-02-16T07:00:34;96289.50;;;16.01;33.58
6423;BME280;3244;42.708;23.288;2023-02-16T07:03:00;96292.19;;;15.73;33.38
6423;BME280;3244;42.708;23.288;2023-02-16T07:05:27;96293.34;;;14.56;35.53
6423;BME280;3244;42.708;23.288;2023-02-16T07:07:54;96287.53;;;14.20;36.35
6423;BME280;3244;42.708;23.288;2023-02-16T07:10:21;96283.06;;;14.85;35.59
6423;BME280;3244;42.708;23.288;2023-02-16T07:12:49;96279.13;;;16.04;33.49
6423;BME280;3244;42.708;23.288;2023-02-16T07:15:16;96277.78;;;16.41;32.90
6423;BME280;3244;42.708;23.288;2023-02-16T07:17:43;96271.47;;;17.16;32.40
6423;BME280;3244;42.708;23.288;2023-02-16T07:20:10;96268.97;;;18.16;30.92
6423;BME280;3244;42.708;23.288;2023-02-16T07:22:38;96263.63;;;18.40;30.25
6423;BME280;3244;42.708;23.288;2023-02-16T07:25:05;96263.75;;;17.79;30.54
6423;BME280;3244;42.708;23.288;2023-02-16T07:27:32;96260.66;;;17.08;31.84
6423;BME280;3244;42.708;23.288;2023-02-16T07:30:00;96249.25;;;16.26;32.96
6423;BME280;3244;42.708;23.288;2023-02-16T07:32:28;96259.66;;;15.98;34.12
6423;BME280;3244;42.708;23.288;2023-02-16T07:34:55;96256.28;;;16.21;33.48
6423;BME280;3244;42.708;23.288;2023-02-16T07:37:22;96260.78;;;15.15;34.60
6423;BME280;3244;42.708;23.288;2023-02-16T07:39:49;96261.19;;;14.75;35.91
6423;BME280;3244;42.708;23.288;2023-02-16T07:42:17;96256.28;;;15.73;34.59
6423;BME280;3244;42.708;23.288;2023-02-16T07:44:44;96252.13;;;16.86;33.14
6423;BME280;3244;42.708;23.288;2023-02-16T07:47:12;96254.50;;;18.14;31.50
6423;BME280;3244;42.708;23.288;2023-02-16T07:49:39;96253.25;;;19.15;28.64
6423;BME280;3244;42.708;23.288;2023-02-16T07:52:06;96247.94;;;19.00;29.21
6423;BME280;3244;42.708;23.288;2023-02-16T07:54:33;96245.28;;;19.02;29.06
6423;BME280;3244;42.708;23.288;2023-02-16T07:57:00;96256.25;;;18.51;30.12
6423;BME280;3244;42.708;23.288;2023-02-16T07:59:26;96257.06;;;17.75;30.89
6423;BME280;3244;42.708;23.288;2023-02-16T08:01:53;96260.94;;;17.43;31.51
6423;BME280;3244;42.708;23.288;2023-02-16T08:04:21;96257.69;;;18.00;30.86
6423;BME280;3244;42.708;23.288;2023-02-16T08:06:48;96258.84;;;19.06;29.44
6423;BME280;3244;42.708;23.288;2023-02-16T08:09:16;96251.84;;;20.11;28.11
6423;BME280;3244;42.708;23.288;2023-02-16T08:11:43;96248.47;;;20.26;27.61
6423;BME280;3244;42.708;23.288;2023-02-16T08:14:10;96248.66;;;20.55;27.05
6423;BME280;3244;42.708;23.288;2023-02-16T08:16:36;96260.38;;;19.96;27.58
6423;BME280;3244;42.708;23.288;2023-02-16T08:19:03;96259.06;;;19.54;28.15
6423;BME280;3244;42.708;23.288;2023-02-16T08:21:33;96272.06;;;19.34;28.50
6423;BME280;3244;42.708;23.288;2023-02-16T08:24:01;96263.28;;;19.90;27.52
6423;BME280;3244;42.708;23.288;2023-02-16T08:26:31;96249.47;;;19.39;28.34
6423;BME280;3244;42.708;23.288;2023-02-16T08:28:58;96270.94;;;18.30;29.65
6423;BME280;3244;42.708;23.288;2023-02-16T08:31:27;96248.38;;;18.16;30.46
6423;BME280;3244;42.708;23.288;2023-02-16T08:33:56;96267.38;;;19.25;28.98
6423;BME280;3244;42.708;23.288;2023-02-16T08:36:25;96258.81;;;19.76;28.33
6423;BME280;3244;42.708;23.288;2023-02-16T08:38:55;96259.09;;;20.20;27.42
6423;BME280;3244;42.708;23.288;2023-02-16T08:41:23;96263.00;;;20.45;27.35
6423;BME280;3244;42.708;23.288;2023-02-16T08:43:51;96264.84;;;20.43;27.10
6423;BME280;3244;42.708;23.288;2023-02-16T08:46:17;96267.34;;;20.60;26.83
6423;BME280;3244;42.708;23.288;2023-02-16T08:48:44;96271.25;;;20.18;27.66
6423;BME280;3244;42.708;23.288;2023-02-16T08:51:13;96264.91;;;20.08;27.93
6423;BME280;3244;42.708;23.288;2023-02-16T08:53:39;96253.19;;;20.18;27.19
6423;BME280;3244;42.708;23.288;2023-02-16T08:56:07;96255.75;;;19.33;28.01
6423;BME280;3244;42.708;23.288;2023-02-16T08:58:36;96255.66;;;17.67;29.90
6423;BME280;3244;42.708;23.288;2023-02-16T09:01:03;96259.53;;;15.27;34.07
6423;BME280;3244;42.708;23.288;2023-02-16T09:03:30;96264.47;;;14.80;35.67
6423;BME280;3244;42.708;23.288;2023-02-16T09:06:00;96262.13;;;15.27;35.45
6423;BME280;3244;42.708;23.288;2023-02-16T09:08:28;96264.09;;;13.75;37.41
6423;BME280;3244;42.708;23.288;2023-02-16T09:10:55;96269.91;;;12.76;40.25
6423;BME280;3244;42.708;23.288;2023-02-16T09:13:27;96269.13;;;11.92;42.52
6423;BME280;3244;42.708;23.288;2023-02-16T09:15:59;96250.19;;;12.07;42.73
6423;BME280;3244;42.708;23.288;2023-02-16T09:18:26;96266.19;;;12.89;41.62
6423;BME280;3244;42.708;23.288;2023-02-16T09:20:53;96260.31;;;13.23;41.12
6423;BME280;3244;42.708;23.288;2023-02-16T09:23:21;96254.09;;;13.35;40.02
6423;BME280;3244;42.708;23.288;2023-02-16T09:25:48;96258.78;;;13.16;40.81
6423;BME280;3244;42.708;23.288;2023-02-16T09:28:14;96253.41;;;12.91;41.44
6423;BME280;3244;42.708;23.288;2023-02-16T09:30:43;96249.47;;;12.39;41.99
6423;BME280;3244;42.708;23.288;2023-02-16T09:33:10;96251.38;;;11.88;43.06
6423;BME280;3244;42.708;23.288;2023-02-16T09:35:37;96250.22;;;11.59;43.96
6423;BME280;3244;42.708;23.288;2023-02-16T09:38:04;96235.50;;;11.29;44.16
6423;BME280;3244;42.708;23.288;2023-02-16T09:40:32;96245.13;;;11.13;44.65
6423;BME280;3244;42.708;23.288;2023-02-16T09:43:04;96254.41;;;10.62;45.38
6423;BME280;3244;42.708;23.288;2023-02-16T09:45:38;96251.94;;;9.90;47.69
6423;BME280;3244;42.708;23.288;2023-02-16T09:48:10;96254.41;;;9.96;47.93
6423;BME280;3244;42.708;23.288;2023-02-16T09:50:46;96234.88;;;10.03;48.10
6423;BME280;3244;42.708;23.288;2023-02-16T09:53:20;96236.53;;;10.04;47.91
6423;BME280;3244;42.708;23.288;2023-02-16T09:55:54;96231.38;;;10.11;47.81
6423;BME280;3244;42.708;23.288;2023-02-16T09:58:28;96230.28;;;10.32;47.76
6423;BME280;3244;42.708;23.288;2023-02-16T10:01:02;96223.69;;;10.76;46.97
6423;BME280;3244;42.708;23.288;2023-02-16T10:03:46;96217.41;;;10.97;46.33
6423;BME280;3244;42.708;23.288;2023-02-16T10:06:29;96216.50;;;10.99;46.20
6423;BME280;3244;42.708;23.288;2023-02-16T10:09:03;96216.16;;;11.19;46.00
6423;BME280;3244;42.708;23.288;2023-02-16T10:11:33;96217.88;;;11.18;45.41
6423;BME280;3244;42.708;23.288;2023-02-16T10:14:11;96204.41;;;11.13;46.13
6423;BME280;3244;42.708;23.288;2023-02-16T10:16:44;96182.41;;;11.11;45.31
6423;BME280;3244;42.708;23.288;2023-02-16T10:19:19;96195.38;;;11.42;45.46
6423;BME280;3244;42.708;23.288;2023-02-16T10:21:50;96189.03;;;11.19;45.25
6423;BME280;3244;42.708;23.288;2023-02-16T10:24:18;96188.41;;;11.07;45.55
6423;BME280;3244;42.708;23.288;2023-02-16T10:26:47;96188.38;;;11.08;46.88
6423;BME280;3244;42.708;23.288;2023-02-16T10:29:18;96192.22;;;11.31;45.71
6423;BME280;3244;42.708;23.288;2023-02-16T10:31:51;96188.41;;;11.53;45.31
6423;BME280;3244;42.708;23.288;2023-02-16T10:34:34;96182.00;;;11.77;45.45
6423;BME280;3244;42.708;23.288;2023-02-16T10:37:24;96171.44;;;11.95;44.51
6423;BME280;3244;42.708;23.288;2023-02-16T10:40:07;96177.53;;;11.88;44.54
6423;BME280;3244;42.708;23.288;2023-02-16T10:42:39;96173.22;;;11.90;44.37
6423;BME280;3244;42.708;23.288;2023-02-16T10:45:18;96169.66;;;11.99;45.98
6423;BME280;3244;42.708;23.288;2023-02-16T10:47:46;96162.38;;;12.20;46.66
6423;BME280;3244;42.708;23.288;2023-02-16T10:50:20;96160.44;;;12.32;44.76
6423;BME280;3244;42.708;23.288;2023-02-16T10:52:48;96167.41;;;12.23;44.97
6423;BME280;3244;42.708;23.288;2023-02-16T10:55:17;96155.84;;;11.67;44.76
6423;BME280;3244;42.708;23.288;2023-02-16T10:57:49;96156.00;;;11.16;46.20
6423;BME280;3244;42.708;23.288;2023-02-16T11:00:22;96148.66;;;11.01;46.61
6423;BME280;3244;42.708;23.288;2023-02-16T11:02:49;96154.63;;;10.99;46.51
6423;BME280;3244;42.708;23.288;2023-02-16T11:05:34;96144.84;;;10.77;46.37
6423;BME280;3244;42.708;23.288;2023-02-16T11:08:04;96143.94;;;10.80;46.95
6423;BME280;3244;42.708;23.288;2023-02-16T11:10:42;96133.84;;;10.75;46.99
6423;BME280;3244;42.708;23.288;2023-02-16T11:13:21;96141.53;;;10.72;46.91
6423;BME280;3244;42.708;23.288;2023-02-16T11:15:51;96135.13;;;10.50;47.34
6423;BME280;3244;42.708;23.288;2023-02-16T11:18:28;96139.31;;;10.52;48.07
6423;BME280;3244;42.708;23.288;2023-02-16T11:20:59;96132.56;;;10.51;48.15
6423;BME280;3244;42.708;23.288;2023-02-16T11:23:28;96130.75;;;10.60;47.96
6423;BME280;3244;42.708;23.288;2023-02-16T11:25:58;96117.78;;;10.73;48.20
6423;BME280;3244;42.708;23.288;2023-02-16T11:28:30;96121.66;;;10.93;48.07
6423;BME280;3244;42.708;23.288;2023-02-16T11:31:16;96116.41;;;11.02;47.76
6423;BME280;3244;42.708;23.288;2023-02-16T11:33:55;96108.63;;;11.11;47.64
6423;BME280;3244;42.708;23.288;2023-02-16T11:36:29;96104.03;;;11.28;47.63
6423;BME280;3244;42.708;23.288;2023-02-16T11:38:59;96105.03;;;11.21;46.17
6423;BME280;3244;42.708;23.288;2023-02-16T11:41:27;96082.88;;;10.81;46.12
6423;BME280;3244;42.708;23.288;2023-02-16T11:43:55;96097.59;;;10.64;46.72
6423;BME280;3244;42.708;23.288;2023-02-16T11:46:23;96105.47;;;10.50;47.00
6423;BME280;3244;42.708;23.288;2023-02-16T11:48:50;96104.34;;;10.65;47.89
6423;BME280;3244;42.708;23.288;2023-02-16T11:51:31;96099.94;;;10.76;46.64
6423;BME280;3244;42.708;23.288;2023-02-16T11:54:01;96094.03;;;10.74;46.99
6423;BME280;3244;42.708;23.288;2023-02-16T11:56:29;96093.00;;;10.84;46.27
6423;BME280;3244;42.708;23.288;2023-02-16T11:59:05;96088.44;;;11.02;46.91
6423;BME280;3244;42.708;23.288;2023-02-16T12:01:43;96076.63;;;10.99;46.67
6423;BME280;3244;42.708;23.288;2023-02-16T12:04:20;96091.09;;;10.96;46.35
6423;BME280;3244;42.708;23.288;2023-02-16T12:07:01;96080.28;;;10.86;45.98
6423;BME280;3244;42.708;23.288;2023-02-16T12:09:46;96074.34;;;10.85;46.71
6423;BME280;3244;42.708;23.288;2023-02-16T12:12:19;96072.69;;;10.83;46.14
6423;BME280;3244;42.708;23.288;2023-02-16T12:15:01;96068.56;;;10.77;46.74
6423;BME280;3244;42.708;23.288;2023-02-16T12:17:47;96062.00;;;10.64;47.05
6423;BME280;3244;42.708;23.288;2023-02-16T12:20:32;96046.69;;;10.67;48.37
6423;BME280;3244;42.708;23.288;2023-02-16T12:23:13;96050.66;;;10.83;49.14
6423;BME280;3244;42.708;23.288;2023-02-16T12:25:49;96049.41;;;11.03;46.41
6423;BME280;3244;42.708;23.288;2023-02-16T12:28:26;96041.56;;;10.70;46.76
6423;BME280;3244;42.708;23.288;2023-02-16T12:31:05;96036.19;;;10.85;46.69
6423;BME280;3244;42.708;23.288;2023-02-16T12:33:39;96036.75;;;11.00;46.94
6423;BME280;3244;42.708;23.288;2023-02-16T12:36:31;96036.63;;;11.07;46.64
6423;BME280;3244;42.708;23.288;2023-02-16T12:39:06;96035.84;;;11.04;46.71
6423;BME280;3244;42.708;23.288;2023-02-16T12:41:42;96034.03;;;11.09;45.74
6423;BME280;3244;42.708;23.288;2023-02-16T12:44:14;96025.63;;;11.05;46.61
6423;BME280;3244;42.708;23.288;2023-02-16T12:46:45;96019.41;;;11.18;45.55
6423;BME280;3244;42.708;23.288;2023-02-16T12:49:16;96019.22;;;11.28;46.74
6423;BME280;3244;42.708;23.288;2023-02-16T12:51:48;96023.00;;;11.50;46.04
6423;BME280;3244;42.708;23.288;2023-02-16T12:54:21;96017.06;;;11.49;45.56
6423;BME280;3244;42.708;23.288;2023-02-16T12:56:56;96017.00;;;11.52;45.44
6423;BME280;3244;42.708;23.288;2023-02-16T12:59:34;96009.34;;;11.52;44.87
6423;BME280;3244;42.708;23.288;2023-02-16T13:02:08;96008.78;;;11.40;44.89
6423;BME280;3244;42.708;23.288;2023-02-16T13:04:42;96006.34;;;11.35;45.47
6423;BME280;3244;42.708;23.288;2023-02-16T13:07:15;96007.03;;;11.42;46.08
6423;BME280;3244;42.708;23.288;2023-02-16T13:09:54;96005.88;;;11.56;45.28
6423;BME280;3244;42.708;23.288;2023-02-16T13:12:29;96007.38;;;11.65;44.31
6423;BME280;3244;42.708;23.288;2023-02-16T13:15:04;96003.84;;;11.71;44.36
6423;BME280;3244;42.708;23.288;2023-02-16T13:17:39;95993.88;;;11.62;45.18
6423;BME280;3244;42.708;23.288;2023-02-16T13:20:12;95990.59;;;11.56;45.86
6423;BME280;3244;42.708;23.288;2023-02-16T13:25:56;95988.56;;;11.71;44.37
6423;BME280;3244;42.708;23.288;2023-02-16T13:28:43;95986.88;;;11.70;43.63
6423;BME280;3244;42.708;23.288;2023-02-16T13:31:22;95978.50;;;11.65;43.83
6423;BME280;3244;42.708;23.288;2023-02-16T13:34:12;95982.09;;;11.57;44.11
6423;BME280;3244;42.708;23.288;2023-02-16T13:36:56;95962.91;;;11.43;43.65
6423;BME280;3244;42.708;23.288;2023-02-16T13:39:39;95976.44;;;11.45;44.31